createdAt,value
2023-02-19T00:02:18.143Z,22.83
2023-02-19T00:04:45.835Z,21.13
2023-02-19T00:07:13.583Z,21.75
2023-02-19T00:09:41.244Z,20.92
2023-02-19T00:12:08.957Z,19.33
2023-02-19T00:14:36.583Z,16.08
2023-02-19T00:17:04.227Z,20.23
2023-02-19T00:19:31.971Z,18.67
2023-02-19T00:21:59.760Z,16.50
2023-02-19T00:24:27.365Z,12.18
2023-02-19T00:26:54.976Z,10.90
2023-02-19T00:29:22.765Z,15.75
2023-02-19T00:31:51.325Z,13.77
2023-02-19T00:34:19.426Z,15.63
2023-02-19T00:36:47.103Z,11.27
2023-02-19T00:39:16.478Z,12.98
2023-02-19T00:41:45.589Z,15.80
2023-02-19T00:44:14.572Z,16.40
2023-02-19T00:46:47.737Z,11.05
2023-02-19T00:49:23.007Z,10.52
2023-02-19T00:51:52.452Z,15.13
2023-02-19T00:54:22.699Z,14.40
2023-02-19T00:56:51.112Z,14.82
2023-02-19T00:59:19.032Z,11.38
2023-02-19T01:01:46.783Z,9.93
2023-02-19T01:04:16.403Z,9.32
2023-02-19T01:06:44.148Z,17.33
2023-02-19T01:09:11.961Z,20.25
2023-02-19T01:11:40.024Z,15.57
2023-02-19T01:14:09.829Z,12.77
2023-02-19T01:16:37.973Z,17.00
2023-02-19T01:19:05.796Z,11.30
2023-02-19T01:21:33.444Z,17.27
2023-02-19T01:24:01.230Z,9.32
2023-02-19T01:26:32.435Z,8.23
2023-02-19T01:29:01.696Z,12.20
2023-02-19T01:31:30.445Z,8.93
2023-02-19T01:34:01.628Z,14.00
2023-02-19T01:36:32.992Z,17.75
2023-02-19T01:39:04.076Z,12.88
2023-02-19T01:41:36.336Z,11.55
2023-02-19T01:44:27.989Z,13.18
2023-02-19T01:46:58.802Z,17.92
2023-02-19T01:49:36.156Z,8.05
2023-02-19T01:52:26.767Z,11.23
2023-02-19T01:54:56.364Z,8.93
2023-02-19T01:57:30.110Z,11.00
2023-02-19T02:00:05.985Z,12.63
2023-02-19T02:02:42.797Z,11.18
2023-02-19T02:05:35.428Z,15.48
2023-02-19T02:08:22.704Z,14.75
2023-02-19T02:10:52.094Z,12.45
2023-02-19T02:13:20.139Z,10.55
2023-02-19T02:16:04.351Z,11.70
2023-02-19T02:18:52.884Z,12.95
2023-02-19T02:21:53.463Z,8.88
2023-02-19T02:24:49.303Z,10.70
2023-02-19T02:27:40.083Z,12.40
2023-02-19T02:30:18.178Z,11.88
2023-02-19T02:33:19.919Z,6.68
2023-02-19T02:35:59.419Z,7.70
2023-02-19T02:38:33.147Z,17.90
2023-02-19T02:41:01.067Z,10.70
2023-02-19T02:43:30.234Z,17.77
2023-02-19T02:45:58.504Z,18.10
2023-02-19T02:48:41.396Z,12.20
2023-02-19T02:51:28.466Z,16.05
2023-02-19T02:54:45.590Z,12.05
2023-02-19T02:57:16.559Z,14.95
2023-02-19T02:59:49.305Z,17.13
2023-02-19T03:02:26.803Z,16.75
2023-02-19T03:05:37.160Z,21.17
2023-02-19T03:08:15.515Z,11.88
2023-02-19T03:11:28.680Z,23.35
2023-02-19T03:14:30.114Z,21.48
2023-02-19T03:17:27.732Z,12.43
2023-02-19T03:19:58.744Z,16.20
2023-02-19T03:22:32.514Z,16.63
2023-02-19T03:25:53.837Z,18.38
2023-02-19T03:28:53.593Z,15.32
2023-02-19T03:31:24.913Z,18.55
2023-02-19T03:33:58.694Z,21.73
2023-02-19T03:36:40.798Z,16.40
2023-02-19T03:39:11.914Z,13.25
2023-02-19T03:42:15.394Z,12.02
2023-02-19T03:45:03.592Z,17.35
2023-02-19T03:47:49.058Z,21.35
2023-02-19T03:50:52.405Z,16.88
2023-02-19T03:53:29.852Z,13.50
2023-02-19T03:56:22.346Z,19.67
2023-02-19T03:59:15.349Z,12.60
2023-02-19T04:01:56.208Z,14.45
2023-02-19T04:04:34.173Z,17.88
2023-02-19T04:07:02.125Z,15.63
2023-02-19T04:09:47.485Z,13.65
2023-02-19T04:12:19.676Z,10.88
2023-02-19T04:15:07.355Z,18.60
2023-02-19T04:17:39.629Z,14.80
2023-02-19T04:20:10.710Z,14.50
2023-02-19T04:22:40.493Z,14.70
2023-02-19T04:25:09.184Z,13.35
2023-02-19T04:27:39.424Z,13.27
2023-02-19T04:30:10.895Z,18.48
2023-02-19T04:32:38.767Z,16.70
2023-02-19T04:35:06.723Z,13.85
2023-02-19T04:37:34.326Z,15.73
2023-02-19T04:40:02.161Z,10.20
2023-02-19T04:42:29.913Z,15.68
2023-02-19T04:44:57.599Z,10.35
2023-02-19T04:47:25.349Z,13.07
2023-02-19T04:49:53.182Z,14.80
2023-02-19T04:52:20.786Z,11.98
2023-02-19T04:54:49.236Z,8.98
2023-02-19T04:57:16.858Z,13.13
2023-02-19T04:59:44.603Z,10.00
2023-02-19T05:02:12.310Z,15.82
2023-02-19T05:04:40.028Z,10.63
2023-02-19T05:07:08.694Z,19.83
2023-02-19T05:09:36.392Z,17.92
2023-02-19T05:12:04.143Z,13.50
2023-02-19T05:14:31.962Z,8.18
2023-02-19T05:16:59.621Z,10.13
2023-02-19T05:19:27.489Z,14.63
2023-02-19T05:21:55.108Z,11.73
2023-02-19T05:24:24.403Z,15.68
2023-02-19T05:26:52.111Z,11.02
2023-02-19T05:29:19.794Z,12.68
2023-02-19T05:31:47.649Z,13.00
2023-02-19T05:34:15.473Z,10.85
2023-02-19T05:36:43.079Z,15.60
2023-02-19T05:39:12.345Z,10.35
2023-02-19T05:41:40.086Z,12.63
2023-02-19T05:44:07.897Z,9.52
2023-02-19T05:46:35.634Z,12.20
2023-02-19T05:49:04.256Z,11.23
2023-02-19T05:51:32.249Z,14.85
2023-02-19T05:53:59.865Z,16.90
2023-02-19T05:56:37.680Z,9.40
2023-02-19T05:59:14.479Z,11.57
2023-02-19T06:01:42.554Z,9.73
2023-02-19T06:04:12.351Z,10.02
2023-02-19T06:06:41.681Z,12.98
2023-02-19T06:09:10.662Z,11.85
2023-02-19T06:11:39.638Z,11.48
2023-02-19T06:14:07.678Z,9.63
2023-02-19T06:16:35.301Z,12.60
2023-02-19T06:19:04.414Z,13.07
2023-02-19T06:21:32.088Z,10.02
2023-02-19T06:24:04.627Z,12.85
2023-02-19T06:26:32.588Z,11.57
2023-02-19T06:29:00.269Z,10.07
2023-02-19T06:31:28.152Z,10.75
2023-02-19T06:33:55.922Z,11.05
2023-02-19T06:36:24.246Z,16.45
2023-02-19T06:38:52.265Z,9.35
2023-02-19T06:41:20.006Z,18.23
2023-02-19T06:43:47.736Z,17.58
2023-02-19T06:46:15.549Z,11.23
2023-02-19T06:48:44.959Z,16.85
2023-02-19T06:51:19.590Z,15.07
2023-02-19T06:53:47.282Z,12.75
2023-02-19T06:56:37.896Z,10.85
2023-02-19T06:59:09.106Z,10.45
2023-02-19T07:01:37.864Z,8.15
2023-02-19T07:04:07.592Z,13.57
2023-02-19T07:06:36.227Z,13.70
2023-02-19T07:09:06.801Z,13.10
2023-02-19T07:11:36.563Z,11.32
2023-02-19T07:14:10.202Z,17.33
2023-02-19T07:16:39.403Z,8.68
2023-02-19T07:19:07.070Z,14.98
2023-02-19T07:21:37.762Z,9.38
2023-02-19T07:24:06.280Z,12.30
2023-02-19T07:26:34.570Z,15.88
2023-02-19T07:29:02.516Z,10.57
2023-02-19T07:31:30.286Z,17.58
2023-02-19T07:33:58.000Z,12.65
2023-02-19T07:36:25.832Z,10.25
2023-02-19T07:38:55.809Z,11.68
2023-02-19T07:41:24.603Z,12.68
2023-02-19T07:43:53.668Z,11.25
2023-02-19T07:46:22.578Z,8.43
2023-02-19T07:48:50.231Z,13.82
2023-02-19T07:51:20.651Z,14.13
2023-02-19T07:53:52.917Z,12.20
2023-02-19T07:56:21.206Z,11.27
2023-02-19T07:58:49.577Z,6.45
2023-02-19T08:01:42.050Z,13.27
2023-02-19T08:04:12.997Z,5.85
2023-02-19T08:06:41.534Z,14.20
2023-02-19T08:09:09.541Z,11.93
2023-02-19T08:11:55.523Z,5.03
2023-02-19T08:14:27.380Z,11.65
2023-02-19T08:16:55.530Z,10.32
2023-02-19T08:19:23.563Z,7.43
2023-02-19T08:21:51.316Z,12.45
2023-02-19T08:24:18.976Z,11.15
2023-02-19T08:26:46.720Z,9.93
2023-02-19T08:29:14.393Z,13.63
2023-02-19T08:31:42.390Z,6.88
2023-02-19T08:34:10.105Z,15.55
2023-02-19T08:36:38.335Z,5.78
2023-02-19T08:39:05.918Z,12.52
2023-02-19T08:41:33.612Z,11.60
2023-02-19T08:44:01.261Z,7.00
2023-02-19T08:46:28.914Z,8.57
2023-02-19T08:48:56.575Z,11.48
2023-02-19T08:51:24.267Z,11.10
2023-02-19T08:53:51.985Z,12.65
2023-02-19T08:56:19.704Z,13.60
2023-02-19T08:58:47.665Z,10.75
2023-02-19T09:01:18.387Z,10.68
2023-02-19T09:03:46.444Z,9.20
2023-02-19T09:06:17.885Z,13.68
2023-02-19T09:08:45.948Z,13.98
2023-02-19T09:11:14.513Z,12.77
2023-02-19T09:13:43.569Z,16.45
2023-02-19T09:16:12.202Z,11.15
2023-02-19T09:18:40.686Z,11.02
2023-02-19T09:21:08.550Z,9.30
2023-02-19T09:23:37.536Z,12.75
2023-02-19T09:26:09.374Z,12.35
2023-02-19T09:28:40.217Z,11.05
2023-02-19T09:31:14.176Z,8.85
2023-02-19T09:33:44.481Z,9.65
2023-02-19T09:36:13.668Z,14.63
2023-02-19T09:38:42.171Z,10.45
2023-02-19T09:41:33.087Z,11.77
2023-02-19T09:44:04.520Z,11.68
2023-02-19T09:46:44.605Z,9.98
2023-02-19T09:49:17.598Z,10.98
2023-02-19T09:51:52.637Z,5.70
2023-02-19T09:54:26.419Z,16.55
2023-02-19T09:56:56.590Z,6.85
2023-02-19T09:59:36.942Z,10.18
2023-02-19T10:02:17.827Z,11.52
2023-02-19T10:04:47.329Z,9.80
2023-02-19T10:07:38.253Z,11.57
2023-02-19T10:10:14.828Z,11.90
2023-02-19T10:12:53.278Z,9.85
2023-02-19T10:15:36.400Z,6.88
2023-02-19T10:18:05.553Z,12.50
2023-02-19T10:20:33.902Z,9.27
2023-02-19T10:23:07.885Z,7.53
2023-02-19T10:25:36.457Z,14.07
2023-02-19T10:28:06.343Z,4.90
2023-02-19T10:30:36.219Z,6.18
2023-02-19T10:33:16.264Z,12.40
2023-02-19T10:36:06.400Z,7.00
2023-02-19T10:38:38.236Z,5.50
2023-02-19T10:41:18.565Z,6.65
2023-02-19T10:43:55.654Z,9.02
2023-02-19T10:46:31.360Z,11.13
2023-02-19T10:51:40.562Z,4.72
2023-02-19T10:54:20.802Z,5.32
2023-02-19T10:56:48.598Z,7.03
2023-02-19T10:59:28.418Z,12.90
2023-02-19T11:02:00.786Z,6.13
2023-02-19T11:04:38.125Z,13.35
2023-02-19T11:07:17.097Z,8.20
2023-02-19T11:09:49.739Z,7.20
2023-02-19T11:12:26.626Z,5.13
2023-02-19T11:14:55.014Z,9.85
2023-02-19T11:17:30.583Z,8.00
2023-02-19T11:22:46.925Z,6.00
2023-02-19T11:25:14.660Z,4.90
2023-02-19T11:28:07.953Z,7.82
2023-02-19T11:30:42.363Z,6.63
2023-02-19T11:33:25.432Z,5.68
2023-02-19T11:36:18.002Z,4.90
2023-02-19T11:38:45.810Z,7.05
2023-02-19T11:42:09.309Z,5.03
2023-02-19T11:45:03.931Z,2.72
2023-02-19T11:48:31.770Z,5.82
2023-02-19T11:51:46.100Z,8.95
2023-02-19T11:54:58.254Z,6.82
2023-02-19T11:58:09.573Z,5.85
2023-02-19T12:00:54.268Z,4.75
2023-02-19T12:04:00.031Z,3.63
2023-02-19T12:06:55.070Z,3.85
2023-02-19T12:09:26.656Z,6.13
2023-02-19T12:12:29.076Z,8.40
2023-02-19T12:15:15.520Z,5.72
2023-02-19T12:18:12.970Z,4.25
2023-02-19T12:21:29.156Z,4.85
2023-02-19T12:24:07.669Z,3.40
2023-02-19T12:27:12.588Z,2.85
2023-02-19T12:30:04.324Z,2.55
2023-02-19T12:33:03.311Z,4.75
2023-02-19T12:35:48.782Z,1.48
2023-02-19T12:38:35.433Z,2.13
2023-02-19T12:41:34.853Z,6.70
2023-02-19T12:44:17.363Z,3.90
2023-02-19T12:46:53.243Z,5.60
2023-02-19T12:49:47.106Z,4.90
2023-02-19T12:52:28.686Z,7.63
2023-02-19T12:55:03.537Z,6.13
2023-02-19T12:57:37.055Z,7.53
2023-02-19T13:00:41.703Z,10.43
2023-02-19T13:03:20.997Z,6.75
2023-02-19T13:06:03.373Z,9.20
2023-02-19T13:09:06.793Z,6.30
2023-02-19T13:12:45.737Z,9.18
2023-02-19T13:15:24.010Z,8.82
2023-02-19T13:17:56.104Z,6.45
2023-02-19T13:20:32.704Z,10.93
2023-02-19T13:23:45.253Z,8.65
2023-02-19T13:26:43.165Z,9.15
2023-02-19T13:29:41.556Z,13.88
2023-02-19T13:32:52.191Z,8.85
2023-02-19T13:35:39.175Z,8.05
2023-02-19T13:38:12.466Z,9.68
2023-02-19T13:40:43.452Z,7.60
2023-02-19T13:43:42.940Z,9.18
2023-02-19T13:46:14.705Z,6.50
2023-02-19T13:48:44.529Z,11.50
2023-02-19T13:51:18.839Z,7.35
2023-02-19T13:53:48.240Z,9.57
2023-02-19T13:56:36.593Z,7.25
2023-02-19T13:59:36.228Z,11.65
2023-02-19T14:02:03.982Z,11.15
2023-02-19T14:04:50.420Z,8.07
2023-02-19T14:07:18.122Z,7.93
2023-02-19T14:09:47.426Z,6.53
2023-02-19T14:12:16.059Z,7.80
2023-02-19T14:15:25.465Z,7.68
2023-02-19T14:17:55.271Z,8.95
2023-02-19T14:20:35.121Z,9.30
2023-02-19T14:23:24.310Z,5.05
2023-02-19T14:25:58.401Z,7.50
2023-02-19T14:28:30.860Z,7.25
2023-02-19T14:31:16.430Z,9.50
2023-02-19T14:33:52.817Z,8.32
2023-02-19T14:36:50.174Z,6.75
2023-02-19T14:39:37.827Z,9.02
2023-02-19T14:42:15.425Z,12.57
2023-02-19T14:45:06.581Z,10.10
2023-02-19T14:47:37.122Z,5.00
2023-02-19T14:50:19.762Z,7.25
2023-02-19T14:52:54.239Z,7.90
2023-02-19T14:55:42.895Z,10.63
2023-02-19T14:58:28.702Z,8.77
2023-02-19T15:00:56.601Z,5.15
2023-02-19T15:03:35.486Z,13.68
2023-02-19T15:06:06.974Z,5.90
2023-02-19T15:08:45.404Z,9.77
2023-02-19T15:11:21.024Z,8.48
2023-02-19T15:13:58.380Z,5.70
2023-02-19T15:16:29.415Z,9.25
2023-02-19T15:19:00.056Z,8.35
2023-02-19T15:21:31.694Z,8.15
2023-02-19T15:24:06.097Z,6.53
2023-02-19T15:26:41.284Z,5.85
2023-02-19T15:29:19.343Z,8.82
2023-02-19T15:31:52.881Z,7.45
2023-02-19T15:34:29.591Z,9.15
2023-02-19T15:37:02.160Z,6.55
2023-02-19T15:39:47.445Z,4.70
2023-02-19T15:42:24.395Z,11.17
2023-02-19T15:45:09.479Z,8.05
2023-02-19T15:47:41.544Z,10.02
2023-02-19T15:50:17.863Z,7.53
2023-02-19T15:53:07.067Z,7.82
2023-02-19T15:55:55.768Z,7.93
2023-02-19T15:58:32.166Z,7.68
2023-02-19T16:01:05.256Z,5.72
2023-02-19T16:03:33.273Z,6.78
2023-02-19T16:06:16.607Z,7.03
2023-02-19T16:09:02.123Z,8.05
2023-02-19T16:11:40.345Z,5.38
2023-02-19T16:14:37.117Z,5.45
2023-02-19T16:17:10.509Z,7.15
2023-02-19T16:19:55.165Z,8.02
2023-02-19T16:22:26.753Z,9.32
2023-02-19T16:24:59.025Z,4.40
2023-02-19T16:27:39.379Z,8.23
2023-02-19T16:30:10.604Z,6.35
2023-02-19T16:32:38.275Z,7.22
2023-02-19T16:35:36.809Z,5.43
2023-02-19T16:38:14.616Z,13.68
2023-02-19T16:41:08.666Z,6.75
2023-02-19T16:43:41.998Z,6.13
2023-02-19T16:46:12.095Z,5.43
2023-02-19T16:48:40.647Z,5.65
2023-02-19T16:51:17.369Z,10.00
2023-02-19T16:53:45.099Z,3.72
2023-02-19T16:56:18.625Z,6.32
2023-02-19T16:58:46.279Z,4.82
2023-02-19T17:01:14.330Z,6.88
2023-02-19T17:03:42.431Z,6.25
2023-02-19T17:06:11.842Z,4.18
2023-02-19T17:08:44.360Z,7.45
2023-02-19T17:11:15.684Z,3.97
2023-02-19T17:13:45.958Z,4.93
2023-02-19T17:16:21.157Z,7.85
2023-02-19T17:18:49.626Z,5.63
2023-02-19T17:21:27.448Z,4.88
2023-02-19T17:23:56.742Z,7.57
2023-02-19T17:26:28.687Z,9.00
2023-02-19T17:29:00.801Z,4.22
2023-02-19T17:31:28.784Z,9.27
2023-02-19T17:33:56.517Z,6.20
2023-02-19T17:36:30.716Z,8.43
2023-02-19T17:39:01.799Z,6.53
2023-02-19T17:41:30.205Z,6.85
2023-02-19T17:43:57.926Z,5.03
2023-02-19T17:46:27.582Z,8.77
2023-02-19T17:48:56.093Z,4.57
2023-02-19T17:51:24.063Z,6.20
2023-02-19T17:53:51.851Z,6.45
2023-02-19T17:56:24.275Z,9.60
2023-02-19T17:58:52.340Z,9.77
2023-02-19T18:01:20.552Z,9.80
2023-02-19T18:03:48.569Z,10.00
2023-02-19T18:06:16.302Z,10.05
2023-02-19T18:08:52.676Z,10.52
2023-02-19T18:11:22.508Z,10.93
2023-02-19T18:13:51.800Z,8.32
2023-02-19T18:16:19.905Z,8.63
2023-02-19T18:18:47.615Z,13.93
2023-02-19T18:21:15.519Z,8.45
2023-02-19T18:23:43.357Z,8.95
2023-02-19T18:26:11.801Z,10.73
2023-02-19T18:28:39.931Z,13.60
2023-02-19T18:31:07.940Z,7.95
2023-02-19T18:33:35.693Z,11.48
2023-02-19T18:36:04.378Z,9.63
2023-02-19T18:38:32.005Z,6.63
2023-02-19T18:41:00.013Z,7.43
2023-02-19T18:43:27.625Z,8.18
2023-02-19T18:45:55.437Z,6.78
2023-02-19T18:48:23.117Z,8.00
2023-02-19T18:50:50.755Z,8.80
2023-02-19T18:53:18.382Z,12.38
2023-02-19T18:55:46.229Z,13.13
2023-02-19T18:58:13.978Z,11.05
2023-02-19T19:00:41.744Z,7.90
2023-02-19T19:03:09.474Z,8.48
2023-02-19T19:05:37.218Z,7.53
2023-02-19T19:08:05.208Z,13.02
2023-02-19T19:10:32.852Z,7.68
2023-02-19T19:13:00.512Z,18.98
2023-02-19T19:15:28.550Z,7.93
2023-02-19T19:17:56.341Z,11.23
2023-02-19T19:20:24.070Z,9.57
2023-02-19T19:22:53.230Z,17.30
2023-02-19T19:25:22.993Z,10.65
2023-02-19T19:27:54.958Z,10.27
2023-02-19T19:30:23.142Z,10.98
2023-02-19T19:32:52.489Z,11.00
2023-02-19T19:35:21.847Z,11.13
2023-02-19T19:37:49.807Z,12.13
2023-02-19T19:40:18.694Z,8.73
2023-02-19T19:42:46.933Z,15.90
2023-02-19T19:45:15.414Z,13.32
2023-02-19T19:47:43.192Z,11.50
2023-02-19T19:50:13.162Z,14.63
2023-02-19T19:52:41.299Z,17.90
2023-02-19T19:55:09.613Z,14.75
2023-02-19T19:57:39.098Z,16.13
2023-02-19T20:00:13.953Z,19.10
2023-02-19T20:02:41.682Z,19.10
2023-02-19T20:05:09.412Z,12.60
2023-02-19T20:07:37.096Z,16.75
2023-02-19T20:10:07.276Z,14.07
2023-02-19T20:12:34.981Z,16.80
2023-02-19T20:15:02.696Z,12.50
2023-02-19T20:17:30.609Z,14.15
2023-02-19T20:19:58.255Z,12.23
2023-02-19T20:22:26.404Z,13.32
2023-02-19T20:24:55.844Z,13.60
2023-02-19T20:27:24.060Z,15.63
2023-02-19T20:29:51.692Z,16.27
2023-02-19T20:32:19.559Z,15.30
2023-02-19T20:34:48.416Z,22.23
2023-02-19T20:37:16.145Z,15.68
2023-02-19T20:39:44.079Z,20.63
2023-02-19T20:42:16.729Z,17.95
2023-02-19T20:44:45.023Z,15.20
2023-02-19T20:47:12.748Z,15.38
2023-02-19T20:49:46.363Z,13.85
2023-02-19T20:52:16.714Z,14.43
2023-02-19T20:54:44.950Z,14.52
2023-02-19T20:57:14.535Z,12.52
2023-02-19T20:59:44.215Z,18.60
2023-02-19T21:02:20.625Z,17.38
2023-02-19T21:04:48.743Z,18.02
2023-02-19T21:07:16.800Z,16.08
2023-02-19T21:09:44.479Z,15.45
2023-02-19T21:12:12.611Z,18.08
2023-02-19T21:14:41.217Z,16.35
2023-02-19T21:17:08.945Z,15.85
2023-02-19T21:19:36.638Z,17.92
2023-02-19T21:22:04.463Z,21.85
2023-02-19T21:24:32.839Z,17.85
2023-02-19T21:27:00.625Z,22.27
2023-02-19T21:29:28.355Z,13.63
2023-02-19T21:31:57.532Z,18.00
2023-02-19T21:34:29.944Z,17.67
2023-02-19T21:36:58.235Z,17.75
2023-02-19T21:39:28.394Z,21.10
2023-02-19T21:41:58.663Z,15.13
2023-02-19T21:44:26.594Z,18.88
2023-02-19T21:46:54.320Z,20.15
2023-02-19T21:49:22.192Z,20.15
2023-02-19T21:51:50.416Z,19.65
2023-02-19T21:54:27.277Z,16.85
2023-02-19T21:56:55.034Z,19.23
2023-02-19T21:59:23.414Z,22.58
2023-02-19T22:01:51.149Z,20.17
2023-02-19T22:04:22.108Z,23.23
2023-02-19T22:06:50.165Z,22.52
2023-02-19T22:09:17.768Z,18.65
2023-02-19T22:11:45.402Z,22.88
2023-02-19T22:14:13.146Z,19.13
2023-02-19T22:16:40.869Z,19.08
2023-02-19T22:19:10.049Z,24.63
2023-02-19T22:21:43.418Z,20.67
2023-02-19T22:24:20.277Z,26.75
2023-02-19T22:26:50.623Z,22.08
2023-02-19T22:29:19.444Z,21.02
2023-02-19T22:31:47.175Z,20.77
2023-02-19T22:34:15.618Z,17.95
2023-02-19T22:36:43.894Z,21.20
2023-02-19T22:39:24.937Z,23.33
2023-02-19T22:41:53.744Z,24.05
2023-02-19T22:44:21.497Z,22.75
2023-02-19T22:46:55.175Z,24.73
2023-02-19T22:49:23.992Z,16.63
2023-02-19T22:52:01.242Z,19.17
2023-02-19T22:54:28.867Z,25.63
2023-02-19T22:56:56.619Z,18.25
2023-02-19T22:59:24.616Z,16.45
2023-02-19T23:01:53.274Z,21.65
2023-02-19T23:04:22.800Z,23.85
2023-02-19T23:06:50.959Z,20.83
2023-02-19T23:09:27.255Z,23.25
2023-02-19T23:12:11.198Z,19.35
2023-02-19T23:14:38.908Z,21.67
2023-02-19T23:17:07.285Z,19.10
2023-02-19T23:19:35.331Z,22.30
2023-02-19T23:22:03.292Z,23.00
2023-02-19T23:24:31.495Z,25.52
2023-02-19T23:27:00.645Z,19.80
2023-02-19T23:29:30.778Z,21.33
2023-02-19T23:32:00.308Z,23.75
2023-02-19T23:34:28.051Z,27.58
2023-02-19T23:36:55.748Z,26.23
2023-02-19T23:39:23.563Z,25.17
2023-02-19T23:41:57.020Z,21.98
2023-02-19T23:44:26.088Z,22.60
2023-02-19T23:46:53.789Z,22.38
2023-02-19T23:49:21.859Z,25.58
2023-02-19T23:51:49.489Z,24.23
2023-02-19T23:54:17.146Z,26.73
2023-02-19T23:56:45.000Z,23.00
2023-02-19T23:59:13.302Z,33.85
